Plainfield, VT (05667)

3:57 PM EDT on August 30, 2015 (GMT -0400)
East Hill Road, Plainfield, VT | | Change Station
CLOSE
Current Station
Personal Weather Station
Location: Plainfield, VT
Elevation: 1565 ft
Nearby Weather Stations

Elev 1565 ft 44.25 °N, 72.39 °W | Updated 4 minutes ago

Partly Cloudy
Partly Cloudy
77.0 °F
Feels Like 79 °F
N
3.8
Wind Variable Wind from NNE

Today
High -- | Low -- °F
--% Chance of Precip.
Yesterday
High -- | Low -- °F
Precip. -- in
6:10 AM 7:29 PM
Full, 98% visible
Pressure 30.07 in
Visibility 10.0 miles
Clouds Clear
Heat Index 79 °F
Dew Point 63 °F
Humidity 63%
Rainfall 0.00 in
Snow Depth Not available.
UV 5 out of 12
Pollen 8.50 out of 12
Air Quality Not available.
Flu Activity Not available.
METAR KMPV 301951Z AUTO 30006KT 10SM CLR 25/13 A3008 RMK AO2 SLP182 T02500128
Pressure 30.07 in
Visibility 10.0 miles
Clouds Clear
Heat Index 79 °F
Dew Point 63 °F
Humidity 63%
Rainfall 0.00 in
Snow Depth Not available.
UV 5 out of 12
Pollen 8.50 out of 12
Air Quality Not available.
Flu Activity Not available.
METAR KMPV 301951Z AUTO 30006KT 10SM CLR 25/13 A3008 RMK AO2 SLP182 T02500128

10-Day Weather Forecast

×

Almanac

Astronomy

Aug. 30, 2015 Rise Set
Actual Time
Civil Twilight
Nautical Twilight
Astronomical Twilight
Moon
Length of Visible Light
Length of Day
Tomorrow will be .
, % of the Moon is Illuminated

Today's Extremes

State Highs State Lows

Community

WunderPhotos

Upload Photos

1,851,041 photos uploaded!

WunderBlogs® & News

Nearby

Air Quality

  Air Quality AQ Index Pollutant
Not available.

Snow Depth

Station Depth Elevation

Earthquake Activity

City Distance Mag. Time & Date
Minimum magnitude displayed is 2.5.

Coastal Water Temperatures

Place Temperature

Stations

Nearby Weather Stations

Station Location Temp. Windchill Dew Point Humidity Wind Precip. Elev Updated Type